Stout, Ohio
Current Conditions -  °F | °C
As of 9:55 PM on Monday 22 Dec 2014 (Local Time) from KFGX Reporting Station
Scattered Clouds Scattered Clouds  
Wind Chill: 43°   Ceiling: Unl
Heat Index: 47°   Visibility: 10mi
Dew Point: 40°   Wind: 8mph
Humidity: 78%   Direction: 120°ESE
Pressure: 29.78"   Gusts: NA
Location:  38.66°N, 83.38°W
Report Text: KFGX 230255Z AUTO 12007KT 10SM SCT065 SCT090 08/05 A2978 RMK AO2 T00820045
Loading
Personal Weather Stations






























Interactive Weather Map New forecast layout! Learn more

10-Day Weather Forecast

Advertisements
Track Severe Weather on mobile